Time;durP1;ratioP1;P1;durP2;ratioP2;P2;SDS_P1;SDS_P2;PMS_P1;PMS_P2;Temp;Humidity;BMP_temperature;BMP_pressure;BME280_temperature;BME280_humidity;BME280_pressure;Samples;Min_cycle;Max_cycle;Signal;HPM_P1;HPM_P2
2023/03/14 00:01:45;;;;;;;6.77;3.97;;;;;;;2.96;61.86;97379.03;4912807;29;20575;-77
2023/03/14 00:04:12;;;;;;;5.13;2.97;;;;;;;2.88;62.61;97374.00;4896248;29;20210;-75
2023/03/14 00:06:39;;;;;;;3.83;3.43;;;;;;;2.91;62.92;97378.22;4913306;29;20198;-76
2023/03/14 00:09:07;;;;;;;6.57;3.83;;;;;;;2.98;62.10;97370.50;4896010;29;20206;-77
2023/03/14 00:11:34;;;;;;;5.07;3.40;;;;;;;2.97;62.91;97368.78;4912948;29;20734;-75
2023/03/14 00:14:01;;;;;;;5.33;3.47;;;;;;;2.83;63.46;97368.09;4912931;29;20234;-77
2023/03/14 00:16:29;;;;;;;5.73;3.73;;;;;;;2.80;63.42;97365.56;4913574;29;20202;-84
2023/03/14 00:18:58;;;;;;;7.17;4.57;;;;;;;2.63;63.64;97362.34;4915627;29;20310;-75
2023/03/14 00:21:25;;;;;;;8.73;4.90;;;;;;;2.64;64.59;97361.44;4913388;29;20785;-81
2023/03/14 00:23:52;;;;;;;8.20;5.63;;;;;;;2.88;64.01;97357.81;4912398;29;20199;-77
2023/03/14 00:26:20;;;;;;;8.47;5.97;;;;;;;2.94;62.67;97348.38;4912792;29;20218;-78
2023/03/14 00:28:52;;;;;;;11.37;6.67;;;;;;;3.04;62.55;97347.41;4912678;29;20285;-74
2023/03/14 00:31:19;;;;;;;8.93;6.13;;;;;;;3.02;62.54;97348.28;4912358;29;20218;-77
2023/03/14 00:33:46;;;;;;;8.43;5.87;;;;;;;2.80;63.32;97341.72;4912029;29;20826;-75
2023/03/14 00:36:17;;;;;;;8.97;6.37;;;;;;;2.59;62.72;97347.03;4911887;29;20234;-77
2023/03/14 00:38:46;;;;;;;9.37;6.10;;;;;;;2.65;63.04;97332.47;4895435;29;20399;-76
2023/03/14 00:41:19;;;;;;;9.27;5.60;;;;;;;2.62;63.51;97335.06;4911921;29;20198;-75
2023/03/14 00:43:46;;;;;;;7.37;5.90;;;;;;;2.19;64.46;97329.50;4912095;29;20199;-74
2023/03/14 00:46:13;;;;;;;9.07;6.53;;;;;;;2.14;64.64;97340.63;4912408;29;20262;-76
2023/03/14 00:48:45;;;;;;;9.73;7.10;;;;;;;2.17;64.31;97315.03;4912068;29;20286;-78
2023/03/14 00:51:14;;;;;;;9.67;7.07;;;;;;;2.22;65.30;97309.06;4895092;29;20222;-80
2023/03/14 00:53:43;;;;;;;9.83;6.67;;;;;;;2.34;65.05;97301.28;4911786;29;20596;-78
2023/03/14 00:56:12;;;;;;;9.60;7.57;;;;;;;2.18;64.14;97248.63;4912488;29;20221;-80
2023/03/14 00:58:39;;;;;;;10.00;7.53;;;;;;;2.60;63.63;97292.50;4911656;29;20229;-79
2023/03/14 01:01:15;;;;;;;12.40;7.80;;;;;;;2.68;64.23;97293.25;4895507;29;20187;-76
2023/03/14 01:03:42;;;;;;;16.57;10.20;;;;;;;2.58;64.64;97295.06;4894731;29;20220;-76
2023/03/14 01:06:13;;;;;;;12.53;8.00;;;;;;;2.30;64.61;97299.63;4911799;29;20198;-73
2023/03/14 01:08:43;;;;;;;9.80;7.67;;;;;;;2.21;65.14;97288.59;4895674;29;20194;-74
2023/03/14 01:11:13;;;;;;;10.53;7.40;;;;;;;2.12;65.81;97293.81;4916679;29;20225;-74
2023/03/14 01:13:40;;;;;;;12.30;7.60;;;;;;;1.98;66.59;97277.78;4916504;29;20230;-76
2023/03/14 01:16:09;;;;;;;11.20;7.07;;;;;;;1.94;67.12;97284.59;4915551;29;20545;-73
2023/03/14 01:18:38;;;;;;;12.17;7.33;;;;;;;1.63;67.39;97278.88;4919979;29;20320;-76
2023/03/14 01:21:12;;;;;;;13.40;8.77;;;;;;;1.63;68.63;97276.31;4921647;29;20210;-76
2023/03/14 01:23:39;;;;;;;12.57;8.83;;;;;;;1.69;68.13;97288.19;4906985;29;20202;-74
2023/03/14 01:26:10;;;;;;;12.23;8.13;;;;;;;1.66;68.50;97283.13;4903734;29;20210;-78
2023/03/14 01:28:38;;;;;;;13.70;8.13;;;;;;;1.73;67.38;97278.81;4901900;29;20211;-80
2023/03/14 01:31:07;;;;;;;12.10;6.83;;;;;;;1.55;68.39;97255.13;4912301;29;20266;-79
2023/03/14 01:33:34;;;;;;;11.30;7.47;;;;;;;1.63;68.32;97265.25;4894438;29;20191;-79
2023/03/14 01:36:02;;;;;;;12.23;7.50;;;;;;;1.43;67.61;97260.31;4894615;29;20762;-79
2023/03/14 01:38:31;;;;;;;11.70;7.70;;;;;;;1.46;68.82;97264.56;4894345;29;20218;-77
2023/03/14 01:40:59;;;;;;;9.27;7.13;;;;;;;1.39;68.83;97271.41;4894400;29;20229;-77
2023/03/14 01:43:26;;;;;;;8.60;6.00;;;;;;;1.43;68.44;97260.31;4894644;29;20194;-81
2023/03/14 01:46:05;;;;;;;7.73;5.30;;;;;;;1.50;67.28;97269.63;4910476;29;20191;-80
2023/03/14 01:48:45;;;;;;;8.47;5.63;;;;;;;1.56;66.79;97264.50;4897879;29;20193;-78
2023/03/14 01:51:20;;;;;;;6.47;4.80;;;;;;;1.63;66.91;97266.13;4913033;29;20194;-78
2023/03/14 01:53:50;;;;;;;8.57;5.87;;;;;;;1.41;67.92;97244.16;4911838;29;20328;-78
2023/03/14 01:56:19;;;;;;;7.63;5.20;;;;;;;1.44;68.14;97251.78;4894383;29;20266;-75
2023/03/14 01:58:50;;;;;;;7.17;5.33;;;;;;;1.32;68.42;97233.19;4909435;29;20229;-80
2023/03/14 02:01:21;;;;;;;10.43;7.37;;;;;;;1.55;67.40;97254.28;4894235;29;20198;-77
2023/03/14 02:03:56;;;;;;;15.73;9.10;;;;;;;1.67;66.74;97248.25;4911105;29;20213;-75
2023/03/14 02:06:31;;;;;;;15.17;10.70;;;;;;;1.74;66.94;97245.63;4900643;29;20187;-74
2023/03/14 02:09:00;;;;;;;18.37;10.83;;;;;;;1.69;67.31;97237.13;4905449;29;20190;-75
2023/03/14 02:11:31;;;;;;;17.60;10.50;;;;;;;1.80;66.62;97237.06;4900925;29;20253;-83
2023/03/14 02:14:03;;;;;;;15.67;10.37;;;;;;;1.93;66.01;97236.09;4894506;29;20312;-76
2023/03/14 02:17:06;;;;;;;14.00;9.40;;;;;;;1.91;65.63;97237.81;4878210;29;20210;-73
2023/03/14 02:20:12;;;;;;;16.03;11.33;;;;;;;1.88;66.23;97235.28;4900273;29;20245;-80
2023/03/14 02:22:44;;;;;;;15.23;11.80;;;;;;;1.78;67.29;97241.34;4909893;29;20576;-83
2023/03/14 02:25:22;;;;;;;16.00;12.27;;;;;;;2.07;66.63;97235.13;4910061;29;20638;-82
2023/03/14 02:27:49;;;;;;;17.50;11.97;;;;;;;2.00;66.32;97236.03;4894121;29;20189;-80
2023/03/14 02:30:22;;;;;;;15.33;10.63;;;;;;;1.87;66.10;97233.59;4909435;29;21027;-77
2023/03/14 02:32:56;;;;;;;13.90;10.23;;;;;;;1.87;65.42;97215.72;4893630;29;20206;-77
2023/03/14 02:35:27;;;;;;;16.50;9.97;;;;;;;1.89;66.53;97234.44;4911035;29;20644;-77
2023/03/14 02:38:03;;;;;;;10.90;8.90;;;;;;;1.88;65.84;97225.06;4895757;29;20206;-81
2023/03/14 02:40:35;;;;;;;11.87;8.20;;;;;;;1.63;66.78;97216.78;4893937;29;20202;-81
2023/03/14 02:43:02;;;;;;;10.30;7.43;;;;;;;1.38;66.63;97169.38;4893550;29;20195;-82
2023/03/14 02:45:40;;;;;;;11.00;7.50;;;;;;;1.57;67.06;97206.63;4893458;29;20202;-76
2023/03/14 02:48:25;;;;;;;10.50;7.20;;;;;;;1.71;65.89;97217.56;4893678;29;20226;-83
2023/03/14 02:50:55;;;;;;;10.43;7.67;;;;;;;1.37;67.53;97224.66;4911285;29;20288;-80
2023/03/14 02:53:34;;;;;;;11.03;7.07;;;;;;;1.23;67.83;97221.34;4894236;29;20194;-83
2023/03/14 02:56:07;;;;;;;8.03;6.27;;;;;;;1.14;67.58;97221.41;4909096;29;20199;-79
2023/03/14 02:58:36;;;;;;;7.50;6.23;;;;;;;1.13;68.50;97229.91;4897057;29;20214;-83
2023/03/14 03:01:12;;;;;;;9.10;6.50;;;;;;;1.01;68.97;97231.69;4897306;29;20197;-81
2023/03/14 03:03:38;;;;;;;7.97;5.73;;;;;;;0.99;68.14;97233.41;4913774;29;20191;-83
2023/03/14 03:06:06;;;;;;;12.30;6.70;;;;;;;0.99;68.56;97230.84;4914912;29;20206;-83
2023/03/14 03:08:33;;;;;;;9.73;6.77;;;;;;;0.76;69.20;97198.66;4913742;29;20285;-81
2023/03/14 03:11:00;;;;;;;10.80;7.10;;;;;;;0.96;67.95;97241.03;4914191;29;20246;-83
2023/03/14 03:13:29;;;;;;;9.67;6.47;;;;;;;0.77;68.83;97237.75;4902776;29;20244;-83
2023/03/14 03:15:57;;;;;;;9.07;6.77;;;;;;;0.58;68.70;97205.53;4909472;29;20222;-80
2023/03/14 03:18:24;;;;;;;12.27;6.40;;;;;;;0.86;69.16;97240.25;4914417;29;20218;-81
2023/03/14 03:20:51;;;;;;;7.40;5.53;;;;;;;1.07;68.60;97250.31;4900990;29;20194;-80
2023/03/14 03:23:18;;;;;;;8.70;5.60;;;;;;;1.09;67.96;97242.69;4914049;29;20203;-81
2023/03/14 03:25:51;;;;;;;7.30;5.00;;;;;;;0.93;68.11;97246.19;4913894;29;20282;-79
2023/03/14 03:28:19;;;;;;;8.57;4.73;;;;;;;0.74;67.97;97240.31;4916888;29;20202;-83
2023/03/14 03:30:46;;;;;;;7.97;5.47;;;;;;;0.74;68.23;97245.41;4870285;29;20221;-78
2023/03/14 03:33:14;;;;;;;8.37;5.57;;;;;;;0.80;68.85;97247.94;4885861;29;20199;-80
2023/03/14 03:35:49;;;;;;;11.97;6.00;;;;;;;0.81;68.77;97241.97;4881967;29;20193;-82
2023/03/14 03:38:26;;;;;;;7.23;6.30;;;;;;;0.81;69.00;97231.78;4893941;29;20240;-84
2023/03/14 03:40:54;;;;;;;8.87;6.43;;;;;;;0.71;69.73;97240.31;4895301;29;20196;-82
2023/03/14 03:43:24;;;;;;;8.07;6.33;;;;;;;0.57;69.51;97232.75;4893130;29;20241;-76
2023/03/14 03:45:51;;;;;;;9.83;6.60;;;;;;;0.52;69.22;97228.50;4893249;29;20184;-81
2023/03/14 03:48:20;;;;;;;9.50;6.43;;;;;;;0.55;69.25;97234.44;4877662;29;20285;-82
2023/03/14 03:50:47;;;;;;;8.40;6.47;;;;;;;0.55;69.74;97236.13;4896037;29;20198;-84
2023/03/14 03:53:17;;;;;;;10.00;6.40;;;;;;;0.56;69.30;97237.81;4895650;29;20198;-81
2023/03/14 03:55:59;;;;;;;8.63;6.40;;;;;;;0.48;70.31;97239.56;4899280;29;20274;-83
2023/03/14 03:58:26;;;;;;;7.80;5.70;;;;;;;0.43;70.47;97238.75;4878042;29;20230;-82
2023/03/14 04:00:54;;;;;;;6.63;5.30;;;;;;;0.41;70.22;97238.72;4898081;29;20309;-83
2023/03/14 04:03:21;;;;;;;8.30;5.20;;;;;;;0.41;69.48;97241.25;4895537;29;20207;-82
2023/03/14 04:05:59;;;;;;;8.00;5.13;;;;;;;0.57;68.78;97234.44;4896418;29;20219;-82
2023/03/14 04:08:26;;;;;;;6.93;4.77;;;;;;;0.68;68.89;97233.53;4892831;29;20199;-80
2023/03/14 04:10:57;;;;;;;7.33;5.30;;;;;;;0.82;68.42;97216.47;4896296;29;20199;-77
2023/03/14 04:13:38;;;;;;;8.30;5.10;;;;;;;1.16;66.85;97234.97;4912456;29;20227;-83
2023/03/14 04:16:15;;;;;;;9.40;6.20;;;;;;;1.30;66.09;97233.19;4876576;29;20203;-82
2023/03/14 04:18:43;;;;;;;5.93;4.90;;;;;;;1.37;65.53;97227.19;4858395;29;20299;-81
2023/03/14 04:21:10;;;;;;;5.27;4.47;;;;;;;1.39;65.71;97217.81;4875254;29;20589;-79
2023/03/14 04:23:45;;;;;;;6.63;4.90;;;;;;;1.56;65.62;97222.81;4875354;29;20197;-78
2023/03/14 04:26:13;;;;;;;10.13;6.93;;;;;;;1.60;66.16;97212.56;4915612;29;20194;-81
2023/03/14 04:28:40;;;;;;;11.53;7.93;;;;;;;1.46;66.51;97209.25;4912231;29;20226;-82
2023/03/14 04:31:09;;;;;;;11.23;8.13;;;;;;;1.43;66.71;97208.44;4871803;29;20226;-80
2023/03/14 04:33:37;;;;;;;13.63;8.77;;;;;;;1.58;67.00;97198.97;4880828;29;20247;-81
2023/03/14 04:36:05;;;;;;;14.97;8.70;;;;;;;1.49;68.02;97214.34;4863720;29;20298;-81
2023/03/14 04:38:32;;;;;;;17.00;10.13;;;;;;;1.64;67.26;97218.47;4891596;29;20193;-82
2023/03/14 04:41:00;;;;;;;15.27;10.40;;;;;;;1.72;66.58;97226.06;4876510;29;20309;-77
2023/03/14 04:43:31;;;;;;;15.77;10.97;;;;;;;1.71;65.79;97216.72;4875951;29;20210;-80
2023/03/14 04:46:07;;;;;;;15.10;9.47;;;;;;;1.71;66.55;97219.28;4876864;29;20648;-81
2023/03/14 04:48:35;;;;;;;14.20;8.80;;;;;;;1.55;65.31;97195.56;4876880;29;20187;-82
2023/03/14 04:51:02;;;;;;;12.33;9.27;;;;;;;1.73;65.51;97222.66;4876585;29;20194;-84
2023/03/14 04:53:32;;;;;;;17.33;11.03;;;;;;;1.67;66.65;97221.84;4876513;29;20191;-81
2023/03/14 04:56:01;;;;;;;12.90;8.93;;;;;;;1.37;65.78;97194.03;4882540;29;20621;-80
2023/03/14 04:58:35;;;;;;;13.60;9.47;;;;;;;1.61;67.02;97219.34;4895470;29;20198;-83
2023/03/14 05:01:04;;;;;;;18.43;11.07;;;;;;;1.52;67.37;97229.66;4894717;29;20223;-84
2023/03/14 05:03:46;;;;;;;19.87;11.83;;;;;;;1.11;67.43;97215.47;4912392;29;20183;-81
2023/03/14 05:06:20;;;;;;;14.47;10.07;;;;;;;1.25;67.80;97219.63;4895153;29;20228;-85
2023/03/14 05:09:05;;;;;;;19.40;9.07;;;;;;;1.18;66.91;97219.66;4880375;29;20245;-84
2023/03/14 05:11:50;;;;;;;15.37;7.50;;;;;;;1.50;67.40;97223.72;4875054;29;20283;-84
2023/03/14 05:14:23;;;;;;;13.60;8.40;;;;;;;1.31;67.12;97190.69;4874963;29;20234;-81
2023/03/14 05:17:10;;;;;;;12.57;6.70;;;;;;;1.80;66.67;97224.28;4888904;29;20206;-81
2023/03/14 05:19:55;;;;;;;14.00;7.03;;;;;;;2.21;65.23;97222.19;4879438;29;20249;-83
2023/03/14 05:22:45;;;;;;;11.27;6.60;;;;;;;2.14;65.34;97205.25;4896756;29;20190;-84
2023/03/14 05:25:44;;;;;;;10.80;5.17;;;;;;;2.16;64.69;97224.81;4904951;29;20194;-81
2023/03/14 05:28:31;;;;;;;11.03;5.77;;;;;;;2.57;63.35;97226.06;4911045;29;20209;-78
2023/03/14 05:31:17;;;;;;;9.10;5.47;;;;;;;2.69;63.15;97206.31;4931562;29;20222;-76
2023/03/14 05:33:46;;;;;;;8.47;4.90;;;;;;;2.75;62.28;97221.59;4928269;29;20277;-79
2023/03/14 05:36:32;;;;;;;9.97;5.67;;;;;;;2.46;62.58;97232.16;4918962;29;20210;-79
2023/03/14 05:38:59;;;;;;;7.83;5.07;;;;;;;2.28;63.29;97232.34;4914812;29;20710;-79
2023/03/14 05:41:37;;;;;;;8.90;6.03;;;;;;;2.13;64.09;97226.53;4911869;29;20254;-79
2023/03/14 05:44:26;;;;;;;9.00;6.93;;;;;;;2.16;63.67;97229.06;4894423;29;20194;-81
2023/03/14 05:46:53;;;;;;;13.93;6.23;;;;;;;2.13;64.40;97229.94;4911334;29;20265;-74
2023/03/14 05:49:20;;;;;;;10.83;5.93;;;;;;;2.25;64.19;97226.41;4894006;29;20218;-78
2023/03/14 05:52:05;;;;;;;8.07;6.67;;;;;;;2.19;62.87;97198.38;4911041;29;20198;-76
2023/03/14 05:54:45;;;;;;;8.97;6.47;;;;;;;2.40;63.54;97223.69;4894069;29;20198;-79
2023/03/14 05:57:13;;;;;;;12.23;6.93;;;;;;;2.99;62.88;97236.59;4910470;29;20198;-81
2023/03/14 05:59:51;;;;;;;10.03;7.60;;;;;;;3.20;62.07;97235.47;4910513;29;20615;-81
2023/03/14 06:02:48;;;;;;;9.40;6.27;;;;;;;3.32;61.33;97219.94;4893720;29;20202;-79
2023/03/14 06:05:21;;;;;;;10.67;6.20;;;;;;;3.49;60.94;97222.25;4877988;29;20221;-76
2023/03/14 06:07:54;;;;;;;8.13;5.73;;;;;;;3.81;60.20;97236.22;4894342;29;20201;-80
2023/03/14 06:10:21;;;;;;;9.20;7.20;;;;;;;3.92;59.81;97228.38;4908765;29;20198;-80
2023/03/14 06:12:48;;;;;;;12.93;7.10;;;;;;;4.05;58.87;97235.00;4894315;29;20235;-82
2023/03/14 06:15:15;;;;;;;8.40;6.70;;;;;;;3.85;60.03;97234.50;4911074;29;20209;-76
2023/03/14 06:17:46;;;;;;;7.50;6.23;;;;;;;3.74;60.21;97226.97;4893787;29;20204;-75
2023/03/14 06:20:13;;;;;;;7.67;5.80;;;;;;;3.76;60.01;97220.13;4878148;29;20239;-78
2023/03/14 06:22:41;;;;;;;9.33;6.23;;;;;;;4.10;59.27;97238.34;4892951;29;20188;-79
2023/03/14 06:25:10;;;;;;;7.97;5.70;;;;;;;4.35;58.18;97244.69;4894001;29;20210;-76
2023/03/14 06:27:38;;;;;;;6.80;5.00;;;;;;;4.21;57.31;97236.41;4892814;29;20581;-78
2023/03/14 06:30:06;;;;;;;7.30;5.70;;;;;;;4.11;58.72;97235.75;4877846;29;20201;-80
2023/03/14 06:32:33;;;;;;;9.30;6.47;;;;;;;4.07;59.06;97228.97;4892947;29;20909;-78
2023/03/14 06:35:05;;;;;;;6.60;5.57;;;;;;;4.23;57.76;97229.53;4893407;29;20198;-76
2023/03/14 06:37:36;;;;;;;7.47;6.10;;;;;;;4.12;58.39;97219.47;4878056;29;20616;-78
2023/03/14 06:40:05;;;;;;;8.87;6.63;;;;;;;4.32;58.73;97231.09;4877296;29;20235;-77
2023/03/14 06:42:48;;;;;;;9.40;7.03;;;;;;;4.42;59.31;97230.03;4893594;29;20221;-79
2023/03/14 06:45:17;;;;;;;8.93;6.40;;;;;;;4.58;59.01;97223.75;4893322;29;20198;-80
2023/03/14 06:47:44;;;;;;;9.70;6.97;;;;;;;4.85;58.36;97221.50;4893702;29;20262;-77
2023/03/14 06:50:12;;;;;;;9.60;7.43;;;;;;;5.24;57.65;97208.69;4877747;29;20200;-82
2023/03/14 06:52:47;;;;;;;11.70;6.77;;;;;;;5.72;56.11;97217.84;4908902;29;20189;-76
2023/03/14 06:55:18;;;;;;;9.87;7.67;;;;;;;5.67;55.96;97204.25;4893491;29;20783;-77
2023/03/14 06:57:48;;;;;;;11.17;7.90;;;;;;;5.93;55.54;97214.78;4892727;29;20198;-81
2023/03/14 07:00:16;;;;;;;14.27;7.70;;;;;;;6.00;55.48;97221.44;4909384;29;20268;-80
2023/03/14 07:02:42;;;;;;;12.63;7.63;;;;;;;5.94;55.75;97218.16;4893077;29;20199;-76
2023/03/14 07:05:27;;;;;;;14.20;8.77;;;;;;;6.03;55.95;97223.09;4893301;29;20208;-81
2023/03/14 07:07:54;;;;;;;12.57;7.63;;;;;;;6.13;55.04;97215.13;4893351;29;20290;-78
2023/03/14 07:10:21;;;;;;;12.47;7.70;;;;;;;6.08;55.54;97206.66;4910007;29;20209;-77
2023/03/14 07:12:49;;;;;;;9.97;6.60;;;;;;;6.29;54.16;97206.13;4893201;29;20273;-80
2023/03/14 07:15:17;;;;;;;12.57;7.10;;;;;;;6.29;54.61;97210.41;4892451;29;20284;-77
2023/03/14 07:17:49;;;;;;;6.87;5.40;;;;;;;6.37;53.63;97204.19;4908968;29;20218;-82
2023/03/14 07:20:19;;;;;;;7.13;4.80;;;;;;;6.51;52.79;97199.50;4908425;29;20225;-79
2023/03/14 07:22:50;;;;;;;9.90;6.30;;;;;;;6.48;53.47;97189.31;4892182;29;20234;-78
2023/03/14 07:25:23;;;;;;;10.97;6.50;;;;;;;6.80;52.23;97193.53;4893172;29;21070;-79
2023/03/14 07:27:50;;;;;;;9.30;5.80;;;;;;;6.92;51.15;97192.38;4909320;29;20203;-80
2023/03/14 07:30:17;;;;;;;5.77;3.50;;;;;;;6.90;50.89;97189.84;4892520;29;20591;-79
2023/03/14 07:32:45;;;;;;;6.00;4.80;;;;;;;7.09;51.17;97185.00;4892413;29;20614;-78
2023/03/14 07:35:13;;;;;;;4.47;3.47;;;;;;;6.91;51.04;97176.06;4892598;29;20846;-78
2023/03/14 07:37:41;;;;;;;6.60;4.30;;;;;;;7.33;51.17;97194.56;4907833;29;20205;-80
2023/03/14 07:40:12;;;;;;;11.13;3.87;;;;;;;7.50;50.59;97181.97;4892473;29;20315;-82
2023/03/14 07:42:39;;;;;;;4.87;3.70;;;;;;;7.63;50.12;97174.69;4893046;29;20253;-79
2023/03/14 07:45:24;;;;;;;8.77;3.93;;;;;;;7.90;48.00;97172.09;4880193;29;20281;-76
2023/03/14 07:47:51;;;;;;;6.47;3.90;;;;;;;7.79;49.00;97173.34;4896337;29;20643;-76
2023/03/14 07:50:19;;;;;;;7.30;4.27;;;;;;;7.86;48.33;97172.22;4895895;29;20580;-78
2023/03/14 07:52:46;;;;;;;6.80;4.23;;;;;;;7.78;47.61;97167.34;4896132;29;20191;-79
2023/03/14 07:55:13;;;;;;;5.30;3.00;;;;;;;7.99;47.16;97163.22;4896043;29;20658;-75
2023/03/14 07:57:40;;;;;;;6.60;4.60;;;;;;;8.19;45.66;97153.91;4911121;29;20222;-77
2023/03/14 08:00:08;;;;;;;5.30;4.20;;;;;;;8.19;46.92;97148.72;4912833;29;20240;-78
2023/03/14 08:02:39;;;;;;;9.90;3.70;;;;;;;8.44;46.75;97137.56;4894833;29;20206;-76
2023/03/14 08:05:07;;;;;;;8.37;3.23;;;;;;;8.52;45.16;97135.56;4913161;29;20199;-75
2023/03/14 08:07:34;;;;;;;4.13;2.83;;;;;;;8.54;43.60;97138.94;4912646;29;20270;-80
2023/03/14 08:10:02;;;;;;;6.10;4.37;;;;;;;8.68;43.49;97141.84;4912536;29;20235;-76
2023/03/14 08:12:29;;;;;;;4.67;3.10;;;;;;;8.78;43.58;97143.19;4912757;29;20230;-78
2023/03/14 08:14:56;;;;;;;8.27;4.37;;;;;;;8.82;42.61;97124.94;4911988;29;20249;-80
2023/03/14 08:17:23;;;;;;;4.17;3.27;;;;;;;8.96;43.18;97132.19;4912674;29;20679;-79
2023/03/14 08:19:50;;;;;;;5.20;2.93;;;;;;;9.03;42.71;97131.03;4894777;29;20209;-80
2023/03/14 08:22:17;;;;;;;4.23;3.77;;;;;;;9.08;41.81;97126.56;4912654;29;20278;-79
2023/03/14 08:24:46;;;;;;;3.47;2.87;;;;;;;9.12;40.91;97133.28;4911770;29;20585;-82
2023/03/14 08:27:14;;;;;;;10.03;5.60;;;;;;;9.20;41.03;97113.16;4911536;29;20600;-80
2023/03/14 08:29:41;;;;;;;3.53;2.30;;;;;;;9.38;39.05;97124.50;4911533;29;20202;-81
2023/03/14 08:32:08;;;;;;;4.07;2.77;;;;;;;9.28;38.63;97107.69;4911570;29;20670;-79
2023/03/14 08:34:37;;;;;;;4.70;2.93;;;;;;;9.07;40.05;97121.44;4894866;29;20650;-79
2023/03/14 08:37:05;;;;;;;4.97;3.20;;;;;;;9.34;38.58;97108.28;4911270;29;20258;-78
2023/03/14 08:39:50;;;;;;;5.37;2.60;;;;;;;9.65;37.72;97110.47;4894934;29;20206;-80
2023/03/14 08:42:17;;;;;;;3.30;2.50;;;;;;;9.72;37.21;97099.81;4911437;29;20198;-83
2023/03/14 08:44:45;;;;;;;4.17;2.40;;;;;;;10.05;37.24;97112.25;4910370;29;20623;-79
2023/03/14 08:47:12;;;;;;;2.27;2.00;;;;;;;9.77;36.98;97103.03;4911681;29;20192;-80
2023/03/14 08:49:40;;;;;;;4.20;2.70;;;;;;;9.85;37.49;97110.47;4893899;29;20209;-78
2023/03/14 08:52:07;;;;;;;2.90;2.20;;;;;;;9.72;37.71;97086.06;4910363;29;20699;-82
2023/03/14 08:54:34;;;;;;;3.97;2.73;;;;;;;9.92;36.83;97093.81;4910709;29;20198;-82
2023/03/14 08:57:01;;;;;;;4.87;2.03;;;;;;;9.72;36.52;97086.06;4911645;29;20205;-80
2023/03/14 08:59:29;;;;;;;2.30;1.93;;;;;;;9.87;36.30;97074.22;4911179;29;20212;-80
2023/03/14 09:01:56;;;;;;;5.93;1.90;;;;;;;9.71;36.00;97069.69;4911223;29;20261;-78
2023/03/14 09:04:22;;;;;;;3.33;2.40;;;;;;;9.49;36.16;97066.31;4911688;29;20217;-81
2023/03/14 09:06:50;;;;;;;4.53;2.40;;;;;;;9.67;36.57;97081.06;4910939;29;20613;-81
2023/03/14 09:09:17;;;;;;;3.20;2.90;;;;;;;9.80;36.46;97078.81;4911447;29;20246;-82
2023/03/14 09:11:44;;;;;;;4.30;2.20;;;;;;;10.01;36.05;97074.47;4893655;29;20217;-77
2023/03/14 09:14:10;;;;;;;4.10;3.20;;;;;;;10.10;35.89;97064.59;4911698;29;20768;-78
2023/03/14 09:16:37;;;;;;;4.47;2.37;;;;;;;10.07;35.99;97053.50;4910608;29;20195;-77
2023/03/14 09:19:05;;;;;;;5.07;2.37;;;;;;;10.14;36.10;97054.97;4911716;29;20191;-78
2023/03/14 09:21:32;;;;;;;3.33;2.27;;;;;;;10.15;35.45;97051.47;4911234;29;20294;-79
2023/03/14 09:23:59;;;;;;;4.20;3.43;;;;;;;10.30;36.02;97055.97;4909170;29;20277;-78
2023/03/14 09:26:26;;;;;;;4.33;2.37;;;;;;;10.35;35.82;97049.66;4893805;29;20211;-80
2023/03/14 09:28:53;;;;;;;2.63;2.30;;;;;;;10.03;36.26;97031.25;4910537;29;20231;-75
2023/03/14 09:31:22;;;;;;;4.03;2.70;;;;;;;10.17;36.29;97041.88;4894909;29;20194;-80
2023/03/14 09:33:49;;;;;;;2.87;2.50;;;;;;;10.00;36.30;97018.44;4910526;29;20232;-77
2023/03/14 09:36:16;;;;;;;5.00;2.93;;;;;;;10.25;35.88;97037.19;4911067;29;20195;-76
2023/03/14 09:38:43;;;;;;;4.13;2.83;;;;;;;10.32;35.36;97002.38;4909327;29;20678;-80
2023/03/14 09:41:30;;;;;;;4.27;2.27;;;;;;;10.48;35.54;97022.31;4909320;29;20218;-76
2023/03/14 09:44:09;;;;;;;4.50;2.50;;;;;;;10.48;35.63;97021.47;4910696;29;20623;-76
2023/03/14 09:46:39;;;;;;;4.57;2.60;;;;;;;10.67;35.83;97017.16;4910243;29;20233;-78
2023/03/14 09:49:21;;;;;;;4.10;2.50;;;;;;;10.56;35.38;97006.44;4910818;29;20697;-77
2023/03/14 09:51:51;;;;;;;2.23;2.00;;;;;;;10.80;35.33;97002.69;4903312;29;20206;-81
2023/03/14 09:54:26;;;;;;;6.20;2.43;;;;;;;10.79;35.25;96988.06;4891325;29;20210;-77
2023/03/14 09:56:54;;;;;;;4.20;2.90;;;;;;;10.58;35.32;96983.91;4891790;29;20219;-78
2023/03/14 09:59:22;;;;;;;3.90;2.23;;;;;;;10.82;35.33;96972.38;4890483;29;20707;-80
2023/03/14 10:01:49;;;;;;;5.13;2.87;;;;;;;10.76;35.39;96954.53;4891923;29;20216;-77
2023/03/14 10:04:22;;;;;;;5.97;2.87;;;;;;;11.21;35.33;96982.59;4891195;29;20206;-79
2023/03/14 10:06:50;;;;;;;6.30;3.00;;;;;;;11.29;34.43;96970.09;4891037;29;20196;-77
2023/03/14 10:09:25;;;;;;;4.57;2.90;;;;;;;11.45;34.77;96974.44;4891876;29;20229;-79
2023/03/14 10:11:57;;;;;;;10.17;3.17;;;;;;;11.69;34.14;96966.31;4891159;29;20308;-80
2023/03/14 10:14:35;;;;;;;5.93;3.30;;;;;;;12.08;34.24;96966.84;4893298;29;20635;-77
2023/03/14 10:17:09;;;;;;;4.53;3.13;;;;;;;11.66;33.67;96962.16;4873941;29;20208;-80
2023/03/14 10:19:37;;;;;;;4.30;2.33;;;;;;;11.71;33.98;96959.31;4891546;29;20198;-79
2023/03/14 10:22:05;;;;;;;2.70;2.37;;;;;;;11.84;33.51;96948.22;4891101;29;20236;-76
2023/03/14 10:24:35;;;;;;;3.27;2.57;;;;;;;12.06;32.66;96932.34;4874000;29;20190;-81
2023/03/14 10:27:17;;;;;;;5.20;2.80;;;;;;;11.75;34.13;96930.53;4891235;29;20219;-79
2023/03/14 10:30:35;;;;;;;4.07;2.47;;;;;;;11.77;33.74;96939.06;4890789;29;20271;-79
2023/03/14 10:33:29;;;;;;;2.67;2.17;;;;;;;11.63;35.12;96928.53;4858430;29;20615;-80
2023/03/14 10:36:00;;;;;;;2.57;2.10;;;;;;;11.02;35.22;96886.75;4891182;29;20623;-78
2023/03/14 10:38:33;;;;;;;6.70;2.50;;;;;;;11.71;35.11;96918.63;4890245;29;20286;-80
2023/03/14 10:41:02;;;;;;;3.60;2.27;;;;;;;11.66;34.67;96912.00;4891106;29;20252;-81
2023/03/14 10:43:35;;;;;;;3.00;2.00;;;;;;;11.71;34.70;96892.69;4890756;29;20237;-81
2023/03/14 10:46:19;;;;;;;3.90;1.93;;;;;;;11.72;34.58;96896.13;4891009;29;20612;-76
2023/03/14 10:49:26;;;;;;;3.00;2.00;;;;;;;11.86;34.23;96894.50;4885453;29;20711;-81
2023/03/14 10:51:53;;;;;;;3.20;2.70;;;;;;;11.97;34.24;96883.56;4890598;29;20191;-81
2023/03/14 10:54:25;;;;;;;4.57;3.13;;;;;;;12.05;34.40;96881.38;4891263;29;20229;-80
2023/03/14 10:56:58;;;;;;;2.20;2.00;;;;;;;12.38;34.48;96876.94;4891268;29;20226;-81
2023/03/14 10:59:37;;;;;;;6.77;2.20;;;;;;;12.70;33.71;96867.31;4873977;29;20192;-80
2023/03/14 11:02:55;;;;;;;3.07;2.27;;;;;;;12.87;33.25;96868.03;4891366;29;20325;-78
2023/03/14 11:05:43;;;;;;;8.77;4.87;;;;;;;12.99;33.32;96856.09;4873003;29;20273;-79
2023/03/14 11:08:36;;;;;;;7.03;3.00;;;;;;;13.28;32.88;96855.25;4892955;29;20197;-80
2023/03/14 11:11:17;;;;;;;3.47;1.93;;;;;;;12.99;32.85;96804.94;4890956;29;20227;-81
2023/03/14 11:13:59;;;;;;;3.37;2.87;;;;;;;13.42;32.63;96837.06;4874009;29;20615;-80
2023/03/14 11:17:00;;;;;;;5.60;2.73;;;;;;;13.25;32.58;96823.41;4890272;29;20191;-81
2023/03/14 11:19:43;;;;;;;2.90;2.00;;;;;;;13.15;33.32;96814.47;4894786;29;20227;-81
2023/03/14 11:23:03;;;;;;;3.47;1.97;;;;;;;13.14;32.99;96805.00;4894027;29;20233;-81
2023/03/14 11:25:44;;;;;;;3.60;1.93;;;;;;;13.33;33.61;96800.38;4877686;29;20202;-81
2023/03/14 11:28:22;;;;;;;5.43;2.90;;;;;;;13.35;33.25;96780.31;4894957;29;20237;-78
2023/03/14 11:31:01;;;;;;;3.17;1.70;;;;;;;13.35;32.77;96778.56;4894883;29;20193;-79
2023/03/14 11:33:32;;;;;;;2.57;1.70;;;;;;;12.75;34.06;96769.16;4894133;29;20217;-78
2023/03/14 11:36:08;;;;;;;3.00;1.90;;;;;;;13.07;33.77;96750.78;4894508;29;20202;-77
2023/03/14 11:38:58;;;;;;;3.43;2.30;;;;;;;13.49;33.68;96756.88;4893994;29;20190;-76
2023/03/14 11:41:28;;;;;;;3.43;2.83;;;;;;;13.64;33.62;96735.13;4894577;29;20722;-79
2023/03/14 11:43:57;;;;;;;8.37;3.03;;;;;;;13.73;33.75;96756.19;4876802;29;20213;-79
2023/03/14 11:46:34;;;;;;;6.90;2.60;;;;;;;13.69;33.25;96748.66;4894132;29;20625;-78
2023/03/14 11:49:11;;;;;;;5.03;2.53;;;;;;;13.81;32.87;96747.91;4893971;29;20555;-76
2023/03/14 11:51:41;;;;;;;4.17;2.20;;;;;;;14.00;33.01;96747.56;4893713;29;20194;-79
2023/03/14 11:54:45;;;;;;;3.40;2.30;;;;;;;14.06;32.87;96732.38;4894297;29;20376;-78
2023/03/14 11:57:20;;;;;;;5.03;2.33;;;;;;;14.03;33.38;96719.59;4893731;29;20190;-78
2023/03/14 11:59:51;;;;;;;5.07;2.17;;;;;;;13.91;33.89;96715.13;4876544;29;20198;-78
2023/03/14 12:02:30;;;;;;;5.87;2.03;;;;;;;13.85;34.14;96718.13;4893917;29;20353;-79